createdAt,value
2023-02-11T00:00:30.068Z,6.31
2023-02-11T00:02:59.945Z,6.95
2023-02-11T00:05:29.667Z,6.67
2023-02-11T00:07:59.372Z,5.86
2023-02-11T00:10:29.055Z,6.76
2023-02-11T00:13:01.406Z,6.90
2023-02-11T00:15:31.109Z,6.40
2023-02-11T00:18:00.874Z,6.71
2023-02-11T00:20:30.572Z,6.11
2023-02-11T00:23:00.464Z,5.85
2023-02-11T00:25:30.234Z,6.59
2023-02-11T00:28:03.153Z,6.27
2023-02-11T00:30:33.397Z,6.75
2023-02-11T00:33:03.724Z,5.10
2023-02-11T00:35:35.382Z,5.71
2023-02-11T00:38:05.115Z,6.97
2023-02-11T00:40:34.885Z,6.72
2023-02-11T00:43:09.289Z,6.09
2023-02-11T00:45:39.044Z,6.35
2023-02-11T00:48:09.207Z,6.37
2023-02-11T00:50:39.878Z,5.06
2023-02-11T00:53:09.937Z,5.85
2023-02-11T00:55:42.322Z,6.06
2023-02-11T00:58:15.018Z,5.75
2023-02-11T01:00:46.035Z,5.16
2023-02-11T01:03:17.007Z,6.35
2023-02-11T01:05:47.490Z,6.00
2023-02-11T01:08:17.523Z,6.37
2023-02-11T01:10:48.117Z,6.58
2023-02-11T01:13:20.931Z,5.56
2023-02-11T01:15:51.256Z,5.84
2023-02-11T01:18:21.749Z,6.72
2023-02-11T01:20:53.467Z,6.61
2023-02-11T01:23:23.721Z,6.64
2023-02-11T01:25:54.539Z,6.69
2023-02-11T01:28:28.806Z,6.94
2023-02-11T01:30:59.880Z,6.10
2023-02-11T01:33:29.803Z,5.70
2023-02-11T01:36:03.485Z,5.36
2023-02-11T01:38:34.236Z,6.00
2023-02-11T01:41:05.780Z,6.94
2023-02-11T01:43:41.076Z,5.01
2023-02-11T01:46:34.206Z,5.87
2023-02-11T01:49:08.941Z,6.24
2023-02-11T01:51:43.336Z,6.43
2023-02-11T01:54:38.138Z,6.95
2023-02-11T01:57:22.277Z,6.38
2023-02-11T02:00:04.570Z,7.05
2023-02-11T02:02:51.284Z,6.55
2023-02-11T02:05:28.004Z,7.02
2023-02-11T02:08:07.828Z,6.72
2023-02-11T02:10:40.610Z,7.10
2023-02-11T02:13:10.420Z,7.12
2023-02-11T02:15:50.306Z,6.24
2023-02-11T02:18:33.849Z,6.55
2023-02-11T02:21:25.347Z,6.93
2023-02-11T02:24:27.990Z,6.93
2023-02-11T02:27:18.628Z,7.01
2023-02-11T02:30:19.675Z,6.04
2023-02-11T02:33:21.835Z,6.52
2023-02-11T02:36:01.106Z,6.91
2023-02-11T02:38:34.490Z,6.94
2023-02-11T02:41:09.727Z,6.50
2023-02-11T02:43:51.444Z,6.37
2023-02-11T02:46:24.136Z,6.08
2023-02-11T02:48:58.464Z,7.07
2023-02-11T02:51:50.418Z,7.20
2023-02-11T02:54:45.269Z,6.52
2023-02-11T02:57:30.347Z,6.93
2023-02-11T03:00:20.075Z,6.89
2023-02-11T03:03:08.094Z,6.06
2023-02-11T03:05:53.188Z,5.95
2023-02-11T03:08:30.313Z,6.15
2023-02-11T03:11:02.552Z,6.05
2023-02-11T03:13:36.113Z,6.15
2023-02-11T03:16:18.150Z,5.97
2023-02-11T03:19:01.178Z,5.63
2023-02-11T03:21:54.968Z,6.31
2023-02-11T03:24:42.462Z,4.84
2023-02-11T03:27:31.922Z,6.19
2023-02-11T03:30:15.857Z,6.21
2023-02-11T03:32:53.264Z,6.10
2023-02-11T03:35:32.331Z,6.71
2023-02-11T03:38:13.082Z,4.99
2023-02-11T03:40:46.491Z,5.64
2023-02-11T03:43:21.552Z,5.85
2023-02-11T03:45:58.828Z,6.06
2023-02-11T03:48:34.270Z,6.45
2023-02-11T03:51:07.282Z,6.03
2023-02-11T03:53:54.123Z,5.60
2023-02-11T03:56:29.407Z,6.01
2023-02-11T03:59:01.114Z,6.50
2023-02-11T04:01:34.525Z,6.00
2023-02-11T04:04:10.114Z,6.12
2023-02-11T04:06:49.687Z,6.81
2023-02-11T04:09:25.609Z,5.93
2023-02-11T04:12:01.805Z,6.95
2023-02-11T04:15:00.598Z,6.43
2023-02-11T04:17:35.539Z,6.95
2023-02-11T04:20:05.752Z,5.02
2023-02-11T04:22:39.160Z,5.88
2023-02-11T04:25:14.038Z,6.51
2023-02-11T04:27:47.119Z,6.44
2023-02-11T04:30:21.993Z,6.93
2023-02-11T04:32:54.650Z,6.57
2023-02-11T04:35:26.841Z,5.06
2023-02-11T04:42:17.313Z,5.80
2023-02-11T04:45:15.417Z,4.99
2023-02-11T04:48:02.800Z,5.01
2023-02-11T04:51:50.906Z,6.38
2023-02-11T04:54:26.587Z,5.28
2023-02-11T04:58:01.525Z,6.53
2023-02-11T05:10:35.173Z,7.00
2023-02-11T05:12:03.359Z,6.32
2023-02-11T05:14:35.994Z,6.89
2023-02-11T05:17:05.762Z,6.63
2023-02-11T05:19:35.568Z,6.86
2023-02-11T05:22:05.306Z,6.46
2023-02-11T05:24:35.637Z,7.08
2023-02-11T05:27:05.334Z,6.87
2023-02-11T05:29:37.959Z,7.11
2023-02-11T05:32:09.182Z,6.10
2023-02-11T05:34:39.344Z,6.33
2023-02-11T05:37:09.326Z,6.90
2023-02-11T05:39:39.182Z,5.81
2023-02-11T05:42:09.161Z,7.26
2023-02-11T05:44:41.698Z,6.75
2023-02-11T05:47:11.351Z,7.07
2023-02-11T05:49:41.139Z,7.05
2023-02-11T05:52:10.938Z,6.28
2023-02-11T05:54:40.719Z,6.29
2023-02-11T05:57:10.405Z,7.02
2023-02-11T05:59:43.187Z,7.32
2023-02-11T06:02:13.441Z,7.25
2023-02-11T06:04:44.433Z,6.49
2023-02-11T06:07:15.704Z,7.23
2023-02-11T06:09:46.806Z,6.44
2023-02-11T06:12:17.041Z,5.16
2023-02-11T06:14:49.771Z,6.09
2023-02-11T06:17:19.689Z,5.66
2023-02-11T06:19:49.582Z,5.92
2023-02-11T06:22:19.855Z,6.31
2023-02-11T06:25:00.753Z,6.91
2023-02-11T06:27:31.556Z,6.81
2023-02-11T06:30:03.847Z,7.11
2023-02-11T06:32:49.087Z,7.13
2023-02-11T06:35:18.988Z,6.36
2023-02-11T06:37:49.810Z,6.99
2023-02-11T06:40:19.512Z,6.33
2023-02-11T06:42:49.288Z,7.05
2023-02-11T06:45:21.892Z,7.37
2023-02-11T06:47:54.781Z,7.20
2023-02-11T06:50:24.891Z,7.22
2023-02-11T06:52:54.571Z,7.23
2023-02-11T06:55:24.323Z,7.39
2023-02-11T06:57:54.218Z,7.06
2023-02-11T07:00:26.701Z,7.40
2023-02-11T07:02:56.508Z,6.98
2023-02-11T07:05:26.324Z,7.27
2023-02-11T07:07:56.107Z,7.37
2023-02-11T07:10:25.791Z,6.25
2023-02-11T07:12:57.758Z,6.51
2023-02-11T07:15:31.001Z,6.50
2023-02-11T07:18:01.144Z,6.59
2023-02-11T07:20:31.029Z,7.45
2023-02-11T07:23:00.767Z,7.14
2023-02-11T07:25:30.685Z,6.37
2023-02-11T07:28:00.972Z,7.44
2023-02-11T07:30:33.348Z,7.08
2023-02-11T07:33:03.319Z,6.48
2023-02-11T07:35:33.132Z,7.00
2023-02-11T07:38:03.048Z,6.80
2023-02-11T07:40:33.993Z,7.43
2023-02-11T07:43:03.957Z,7.03
2023-02-11T07:45:36.368Z,6.31
2023-02-11T07:48:06.076Z,7.18
2023-02-11T07:50:35.858Z,7.25
2023-02-11T07:53:06.282Z,7.23
2023-02-11T07:55:36.481Z,6.81
2023-02-11T07:58:06.964Z,6.48
2023-02-11T08:00:39.710Z,7.45
2023-02-11T08:03:09.638Z,6.16
2023-02-11T08:05:40.843Z,7.05
2023-02-11T08:08:10.605Z,7.21
2023-02-11T08:10:40.375Z,7.66
2023-02-11T08:13:10.139Z,7.42
2023-02-11T08:15:42.363Z,7.73
2023-02-11T08:18:12.025Z,7.54
2023-02-11T08:20:41.764Z,7.55
2023-02-11T08:23:11.466Z,7.53
2023-02-11T08:25:41.250Z,7.44
2023-02-11T08:28:11.334Z,7.45
2023-02-11T08:30:43.627Z,7.28
2023-02-11T08:33:13.276Z,7.45
2023-02-11T08:35:42.932Z,7.57
2023-02-11T08:38:12.658Z,7.60
2023-02-11T08:40:42.318Z,7.52
2023-02-11T08:43:11.939Z,7.47
2023-02-11T08:45:44.294Z,7.17
2023-02-11T08:48:13.995Z,7.42
2023-02-11T08:50:43.652Z,7.24
2023-02-11T08:53:13.423Z,7.45
2023-02-11T08:55:43.119Z,7.44
2023-02-11T08:58:12.826Z,7.60
2023-02-11T09:00:45.588Z,7.63
2023-02-11T09:03:16.086Z,7.68
2023-02-11T09:05:46.684Z,7.58
2023-02-11T09:08:17.175Z,7.17
2023-02-11T09:10:47.047Z,7.83
2023-02-11T09:13:17.022Z,7.45
2023-02-11T09:15:50.781Z,7.76
2023-02-11T09:18:20.430Z,7.56
2023-02-11T09:20:50.420Z,7.87
2023-02-11T09:23:20.269Z,7.63
2023-02-11T09:25:50.157Z,7.66
2023-02-11T09:28:20.108Z,7.86
2023-02-11T09:30:52.774Z,7.98
2023-02-11T09:33:22.575Z,7.72
2023-02-11T09:35:52.254Z,7.90
2023-02-11T09:38:21.895Z,7.88
2023-02-11T09:40:51.811Z,7.89
2023-02-11T09:43:25.350Z,7.93
2023-02-11T09:45:58.564Z,7.98
2023-02-11T09:48:28.666Z,7.82
2023-02-11T09:51:01.737Z,7.90
2023-02-11T09:53:35.282Z,7.97
2023-02-11T09:56:13.799Z,8.11
2023-02-11T09:58:47.264Z,7.95
2023-02-11T10:01:31.904Z,8.04
2023-02-11T10:04:10.088Z,8.19
2023-02-11T10:06:43.695Z,8.21
2023-02-11T10:09:30.861Z,8.18
2023-02-11T10:12:14.172Z,7.80
2023-02-11T10:14:59.698Z,7.15
2023-02-11T10:17:41.285Z,8.09
2023-02-11T10:20:23.319Z,8.26
2023-02-11T10:22:56.181Z,8.35
2023-02-11T10:25:28.835Z,8.02
2023-02-11T10:28:02.411Z,8.25
2023-02-11T10:30:36.278Z,8.39
2023-02-11T10:33:18.163Z,8.52
2023-02-11T10:35:47.842Z,8.47
2023-02-11T10:38:17.547Z,8.45
2023-02-11T10:40:47.487Z,8.37
2023-02-11T10:43:20.328Z,8.50
2023-02-11T10:45:52.648Z,8.40
2023-02-11T10:48:49.515Z,8.46
2023-02-11T10:51:24.380Z,8.69
2023-02-11T10:54:14.532Z,8.48
2023-02-11T10:56:50.167Z,8.47
2023-02-11T10:59:26.996Z,8.46
2023-02-11T11:02:00.758Z,8.63
2023-02-11T11:04:42.655Z,8.69
2023-02-11T11:07:15.549Z,8.46
2023-02-11T11:09:52.567Z,8.55
2023-02-11T11:12:42.214Z,8.64
2023-02-11T11:15:22.202Z,8.59
2023-02-11T11:17:52.531Z,8.09
2023-02-11T11:20:30.517Z,8.64
2023-02-11T11:23:16.942Z,8.63
2023-02-11T11:25:49.129Z,8.40
2023-02-11T11:28:26.793Z,8.80
2023-02-11T11:30:59.641Z,8.74
2023-02-11T11:33:32.456Z,8.64
2023-02-11T11:36:09.131Z,8.91
2023-02-11T11:38:45.644Z,8.81
2023-02-11T11:41:24.155Z,8.77
2023-02-11T11:44:06.932Z,8.90
2023-02-11T11:46:39.192Z,9.06
2023-02-11T11:49:28.631Z,8.79
2023-02-11T11:52:14.215Z,9.07
2023-02-11T11:54:48.109Z,8.70
2023-02-11T11:57:21.321Z,8.97
2023-02-11T11:59:51.036Z,8.96
2023-02-11T12:02:43.150Z,9.09
2023-02-11T12:05:17.379Z,8.93
2023-02-11T12:08:06.199Z,8.93
2023-02-11T12:11:05.547Z,9.09
2023-02-11T12:13:48.248Z,9.06
2023-02-11T12:16:27.983Z,9.22
2023-02-11T12:19:30.281Z,9.25
2023-02-11T12:22:08.000Z,8.60
2023-02-11T12:24:55.270Z,9.18
2023-02-11T12:27:40.337Z,9.12
2023-02-11T12:30:23.724Z,9.16
2023-02-11T12:33:03.351Z,9.01
2023-02-11T12:35:45.901Z,9.17
2023-02-11T12:38:31.383Z,9.08
2023-02-11T12:41:19.094Z,9.07
2023-02-11T12:43:46.364Z,8.76
2023-02-11T12:46:41.374Z,8.65
2023-02-11T12:49:23.893Z,9.39
2023-02-11T12:52:13.684Z,8.86
2023-02-11T12:54:48.802Z,9.18
2023-02-11T12:57:26.142Z,8.69
2023-02-11T13:00:07.809Z,9.41
2023-02-11T13:02:44.134Z,9.19
2023-02-11T13:05:34.581Z,9.28
2023-02-11T13:08:08.727Z,9.16
2023-02-11T13:10:41.018Z,8.59
2023-02-11T13:13:21.078Z,9.49
2023-02-11T13:15:54.650Z,9.49
2023-02-11T13:18:52.352Z,9.02
2023-02-11T13:21:36.627Z,9.34
2023-02-11T13:24:17.032Z,9.53
2023-02-11T13:26:54.262Z,9.54
2023-02-11T13:29:36.044Z,9.58
2023-02-11T13:32:11.338Z,9.35
2023-02-11T13:34:57.112Z,9.61
2023-02-11T13:37:29.261Z,9.53
2023-02-11T13:40:01.045Z,8.85
2023-02-11T13:42:31.670Z,8.75
2023-02-11T13:45:04.411Z,9.59
2023-02-11T13:47:36.913Z,9.47
2023-02-11T13:50:11.290Z,8.95
2023-02-11T13:52:42.826Z,9.09
2023-02-11T13:55:24.460Z,9.39
2023-02-11T13:58:36.609Z,8.93
2023-02-11T14:01:10.125Z,9.21
2023-02-11T14:03:54.646Z,9.06
2023-02-11T14:06:44.014Z,8.38
2023-02-11T14:09:57.393Z,9.13
2023-02-11T14:12:37.676Z,9.42
2023-02-11T14:15:24.293Z,8.96
2023-02-11T14:17:56.686Z,9.63
2023-02-11T14:24:41.389Z,8.62
2023-02-11T14:27:20.857Z,9.58
2023-02-11T14:30:16.392Z,9.62
2023-02-11T14:33:10.476Z,8.46
2023-02-11T14:35:48.453Z,8.70
2023-02-11T14:38:26.956Z,9.07
2023-02-11T14:41:07.333Z,8.77
2023-02-11T14:43:42.082Z,8.64
2023-02-11T14:46:41.988Z,9.59
2023-02-11T14:49:28.882Z,8.35
2023-02-11T14:52:27.995Z,9.00
2023-02-11T14:55:24.954Z,9.23
2023-02-11T14:58:28.405Z,9.56
2023-02-11T15:01:30.942Z,8.27
2023-02-11T15:04:05.568Z,9.70
2023-02-11T15:22:28.907Z,7.60
2023-02-11T15:25:17.679Z,9.26
2023-02-11T15:28:06.410Z,9.13
2023-02-11T15:30:36.749Z,8.60
2023-02-11T15:33:10.040Z,9.33
2023-02-11T15:35:43.071Z,9.66
2023-02-11T15:38:16.682Z,9.21
2023-02-11T15:40:57.052Z,9.42
2023-02-11T15:46:40.745Z,9.85
2023-02-11T15:49:21.785Z,9.06
2023-02-11T15:51:52.444Z,9.07
2023-02-11T15:54:29.624Z,9.04
2023-02-11T15:57:05.885Z,9.60
2023-02-11T15:59:43.616Z,8.99
2023-02-11T16:02:22.518Z,9.96
2023-02-11T16:04:55.053Z,8.94
2023-02-11T16:07:42.300Z,9.71
2023-02-11T16:10:27.671Z,9.93
2023-02-11T16:13:04.557Z,9.03
2023-02-11T16:15:47.002Z,9.67
2023-02-11T16:18:37.885Z,9.62
2023-02-11T16:21:16.741Z,9.13
2023-02-11T16:23:56.636Z,9.60
2023-02-11T16:38:12.128Z,9.23
2023-02-11T16:40:44.581Z,9.42
2023-02-11T16:43:18.068Z,9.36
2023-02-11T16:45:48.511Z,9.57
2023-02-11T16:48:22.145Z,8.70
2023-02-11T16:50:53.742Z,9.20
2023-02-11T16:53:37.079Z,7.78
2023-02-11T16:56:20.409Z,8.53
2023-02-11T16:58:59.197Z,10.07
2023-02-11T17:01:29.303Z,9.13
2023-02-11T17:03:59.247Z,9.26
2023-02-11T17:06:30.334Z,9.48
2023-02-11T17:09:00.128Z,9.42
2023-02-11T17:11:29.962Z,9.62
2023-02-11T17:14:02.442Z,9.32
2023-02-11T17:16:32.672Z,8.97
2023-02-11T17:19:02.517Z,9.58
2023-02-11T17:21:32.469Z,9.76
2023-02-11T17:24:02.284Z,9.79
2023-02-11T17:26:32.086Z,9.65
2023-02-11T17:29:04.679Z,9.65
2023-02-11T17:31:34.517Z,9.73
2023-02-11T17:34:05.708Z,9.94
2023-02-11T17:36:36.726Z,9.98
2023-02-11T17:39:08.477Z,9.94
2023-02-11T17:41:39.830Z,9.92
2023-02-11T17:44:16.485Z,10.01
2023-02-11T17:46:46.491Z,10.09
2023-02-11T17:49:16.454Z,10.18
2023-02-11T17:51:46.170Z,10.05
2023-02-11T17:54:18.257Z,10.18
2023-02-11T17:56:50.892Z,9.94
2023-02-11T17:59:23.704Z,9.88
2023-02-11T18:01:53.408Z,10.03
2023-02-11T18:04:23.097Z,9.99
2023-02-11T18:06:53.767Z,10.14
2023-02-11T18:09:23.542Z,10.23
2023-02-11T18:11:53.496Z,10.16
2023-02-11T18:14:25.813Z,9.86
2023-02-11T18:16:55.896Z,10.10
2023-02-11T18:19:25.610Z,10.05
2023-02-11T18:21:55.274Z,10.10
2023-02-11T18:24:26.462Z,10.03
2023-02-11T18:26:56.117Z,10.12
2023-02-11T18:29:28.338Z,10.25
2023-02-11T18:31:59.360Z,10.18
2023-02-11T18:34:29.256Z,10.03
2023-02-11T18:36:58.867Z,10.22
2023-02-11T18:39:28.526Z,10.16
2023-02-11T18:41:59.722Z,10.22
2023-02-11T18:44:32.139Z,9.31
2023-02-11T18:47:01.780Z,10.06
2023-02-11T18:49:33.074Z,9.92
2023-02-11T18:52:02.732Z,10.17
2023-02-11T18:54:32.420Z,10.20
2023-02-11T18:57:02.048Z,10.23
2023-02-11T18:59:34.287Z,10.03
2023-02-11T19:02:03.902Z,9.89
2023-02-11T19:04:33.556Z,9.01
2023-02-11T19:07:04.322Z,9.90
2023-02-11T19:09:34.122Z,10.19
2023-02-11T19:12:04.724Z,9.84
2023-02-11T19:14:38.677Z,10.14
2023-02-11T19:17:12.178Z,10.13
2023-02-11T19:19:41.886Z,10.18
2023-02-11T19:22:11.821Z,10.24
2023-02-11T19:24:41.832Z,10.18
2023-02-11T19:27:12.501Z,10.28
2023-02-11T19:29:44.708Z,10.14
2023-02-11T19:32:15.793Z,10.06
2023-02-11T19:34:45.484Z,10.19
2023-02-11T19:37:15.599Z,10.10
2023-02-11T19:39:46.321Z,10.16
2023-02-11T19:42:16.131Z,10.06
2023-02-11T19:44:48.508Z,10.07
2023-02-11T19:47:18.301Z,10.10
2023-02-11T19:49:48.185Z,10.16
2023-02-11T19:52:17.843Z,9.89
2023-02-11T19:54:47.570Z,10.00
2023-02-11T19:57:17.295Z,9.91
2023-02-11T19:59:49.628Z,10.13
2023-02-11T20:02:19.328Z,9.94
2023-02-11T20:04:49.138Z,9.71
2023-02-11T20:07:18.845Z,9.93
2023-02-11T20:09:48.508Z,9.95
2023-02-11T20:12:18.284Z,10.01
2023-02-11T20:14:50.526Z,9.96
2023-02-11T20:17:20.163Z,10.05
2023-02-11T20:19:49.948Z,9.87
2023-02-11T20:22:19.555Z,10.10
2023-02-11T20:24:49.200Z,9.82
2023-02-11T20:27:20.139Z,9.85
2023-02-11T20:29:52.634Z,9.89
2023-02-11T20:32:22.354Z,9.80
2023-02-11T20:34:52.688Z,9.99
2023-02-11T20:37:22.341Z,10.13
2023-02-11T20:39:51.978Z,9.93
2023-02-11T20:42:21.622Z,10.10
2023-02-11T20:44:53.997Z,10.12
2023-02-11T20:47:23.663Z,9.88
2023-02-11T20:49:53.422Z,10.07
2023-02-11T20:52:23.057Z,10.15
2023-02-11T20:54:52.696Z,10.10
2023-02-11T20:57:22.412Z,10.08
2023-02-11T20:59:55.011Z,9.97
2023-02-11T21:02:25.016Z,10.05
2023-02-11T21:04:54.699Z,10.13
2023-02-11T21:07:24.468Z,9.58
2023-02-11T21:09:54.086Z,9.83
2023-02-11T21:12:24.008Z,10.12
2023-02-11T21:14:58.000Z,10.14
2023-02-11T21:17:28.028Z,10.18
2023-02-11T21:19:57.635Z,9.95
2023-02-11T21:22:27.344Z,10.10
2023-02-11T21:24:57.011Z,9.76
2023-02-11T21:27:32.207Z,10.23
2023-02-11T21:30:04.924Z,9.88
2023-02-11T21:32:34.561Z,9.91
2023-02-11T21:35:04.220Z,9.93
2023-02-11T21:37:33.879Z,10.11
2023-02-11T21:40:03.608Z,10.01
2023-02-11T21:42:33.200Z,10.22
2023-02-11T21:45:05.634Z,10.05
2023-02-11T21:47:35.435Z,10.07
2023-02-11T21:50:05.270Z,10.14
2023-02-11T21:52:34.969Z,10.06
2023-02-11T21:55:04.679Z,10.07
2023-02-11T21:57:34.432Z,10.03
2023-02-11T22:00:07.763Z,10.26
2023-02-11T22:02:40.256Z,9.97
2023-02-11T22:05:11.218Z,10.20
2023-02-11T22:07:40.939Z,9.95
2023-02-11T22:10:12.181Z,10.14
2023-02-11T22:12:41.948Z,10.23
2023-02-11T22:15:15.070Z,10.23
2023-02-11T22:17:44.767Z,10.16
2023-02-11T22:20:16.641Z,9.90
2023-02-11T22:22:46.406Z,9.87
2023-02-11T22:25:16.184Z,10.20
2023-02-11T22:27:45.896Z,10.14
2023-02-11T22:30:19.469Z,9.46
2023-02-11T22:32:52.597Z,9.39
2023-02-11T22:35:28.606Z,9.51
2023-02-11T22:37:58.940Z,9.35
2023-02-11T22:40:29.370Z,9.69
2023-02-11T22:42:59.603Z,10.02
2023-02-11T22:45:34.827Z,9.39
2023-02-11T22:48:04.819Z,9.80
2023-02-11T22:50:52.221Z,10.23
2023-02-11T22:53:25.675Z,10.04
2023-02-11T22:55:56.030Z,8.59
2023-02-11T22:58:27.322Z,9.99
2023-02-11T23:00:59.945Z,9.23
2023-02-11T23:03:29.956Z,9.85
2023-02-11T23:06:01.712Z,9.68
2023-02-11T23:08:33.070Z,9.62
2023-02-11T23:11:07.840Z,9.73
2023-02-11T23:13:40.113Z,9.46
2023-02-11T23:16:15.290Z,9.65
2023-02-11T23:18:46.949Z,9.55
2023-02-11T23:21:21.314Z,9.77
2023-02-11T23:23:56.168Z,10.15
2023-02-11T23:26:26.265Z,9.80
2023-02-11T23:28:56.397Z,10.01
2023-02-11T23:31:30.755Z,9.79
2023-02-11T23:34:00.551Z,9.45
2023-02-11T23:36:30.741Z,10.03
2023-02-11T23:39:00.901Z,9.95
2023-02-11T23:41:30.936Z,9.52
2023-02-11T23:44:01.215Z,9.68
2023-02-11T23:46:33.684Z,9.88
2023-02-11T23:49:03.502Z,9.12
2023-02-11T23:51:33.538Z,9.58
2023-02-11T23:54:03.951Z,10.07
2023-02-11T23:56:33.811Z,9.50
2023-02-11T23:59:03.633Z,9.67
